Airport View

Enter AWOS ICAO identifier for current METAR.

ex. KFNL

KBGD 120551Z AUTO 19019G29KT 10SM CLR 08/03 A3006 RMK AO2 PK WND 20031/0541 SLP173 T00830028 10111 20078 401390000 58008

12 Dec 2019 06:22

Frequency: 118.325

Phone: 806-274-7318

Other Area AWOS: KPPA - KBPC - KDUX - KAMA

TAF KAMA 120520Z 1206/1306 19019G29KT P6SM BKN010 FM120900 21017KT 6SM BR BKN024 FM121600 30007KT P6SM FEW250 FM121900 VRB06KT P6SM FEW250